Time;durP1;ratioP1;P1;durP2;ratioP2;P2;SDS_P1;SDS_P2;PMS_P1;PMS_P2;Temp;Humidity;BMP_temperature;BMP_pressure;BME280_temperature;BME280_humidity;BME280_pressure;Samples;Min_cycle;Max_cycle;Signal;HPM_P1;HPM_P2
2023/08/14 00:00:30;;;;;;;5.53;3.40;;;26.30;86.80;;;;;;5032363;28;20083;-82
2023/08/14 00:02:56;;;;;;;9.88;3.78;;;26.30;86.70;;;;;;5014747;28;20033;-81
2023/08/14 00:05:22;;;;;;;9.07;3.42;;;26.30;86.60;;;;;;5032159;28;20100;-82
2023/08/14 00:07:47;;;;;;;7.40;3.42;;;26.30;86.70;;;;;;5032129;28;20030;-82
2023/08/14 00:10:13;;;;;;;9.27;3.58;;;26.20;86.90;;;;;;5014646;28;20044;-81
2023/08/14 00:12:39;;;;;;;4.97;3.65;;;26.20;87.00;;;;;;5032230;28;20076;-81
2023/08/14 00:15:05;;;;;;;6.72;4.18;;;26.20;87.20;;;;;;5031806;28;20026;-82
2023/08/14 00:17:31;;;;;;;3.95;3.10;;;26.20;87.50;;;;;;5031597;28;20022;-81
2023/08/14 00:19:57;;;;;;;4.75;3.40;;;26.20;87.60;;;;;;5031003;28;20021;-81
2023/08/14 00:22:22;;;;;;;6.80;3.90;;;26.20;87.70;;;;;;5032052;28;20030;-81
2023/08/14 00:24:48;;;;;;;7.93;3.55;;;26.20;87.90;;;;;;5032128;28;20022;-80
2023/08/14 00:27:14;;;;;;;5.32;3.72;;;26.10;87.90;;;;;;5014319;28;20051;-81
2023/08/14 00:29:39;;;;;;;4.07;2.92;;;26.10;87.80;;;;;;5034779;28;20036;-80
2023/08/14 00:32:05;;;;;;;7.90;3.67;;;26.10;87.70;;;;;;5018195;28;20030;-80
2023/08/14 00:34:31;;;;;;;6.65;3.10;;;26.00;87.50;;;;;;5035835;28;20112;-80
2023/08/14 00:36:57;;;;;;;10.82;3.20;;;26.00;87.40;;;;;;5035445;28;20046;-80
2023/08/14 00:39:22;;;;;;;3.72;3.13;;;26.00;87.20;;;;;;5035283;28;20092;-81
2023/08/14 00:41:48;;;;;;;4.45;3.25;;;26.00;87.00;;;;;;5035745;28;20088;-81
2023/08/14 00:44:14;;;;;;;4.85;3.28;;;26.00;86.80;;;;;;5035496;28;20076;-81
2023/08/14 00:46:40;;;;;;;7.65;3.85;;;26.00;86.80;;;;;;5035609;28;20372;-81
2023/08/14 00:49:07;;;;;;;8.00;3.20;;;26.00;86.90;;;;;;5035612;28;20032;-81
2023/08/14 00:51:34;;;;;;;4.72;3.80;;;26.00;86.80;;;;;;5017957;28;20052;-81
2023/08/14 00:53:59;;;;;;;5.18;3.35;;;26.00;86.90;;;;;;5035081;28;20030;-82
2023/08/14 00:56:28;;;;;;;7.65;3.10;;;26.00;87.30;;;;;;5035351;28;20045;-81
2023/08/14 00:58:53;;;;;;;6.00;3.92;;;25.90;87.40;;;;;;5033264;28;20064;-82
2023/08/14 01:01:19;;;;;;;9.40;3.53;;;25.90;87.50;;;;;;5032702;28;20439;-81
2023/08/14 01:03:45;;;;;;;4.63;3.25;;;25.90;87.50;;;;;;5032737;28;20108;-82
2023/08/14 01:06:11;;;;;;;6.57;3.95;;;25.90;87.60;;;;;;5034888;28;20051;-82
2023/08/14 01:08:36;;;;;;;4.72;3.28;;;25.90;87.70;;;;;;5034988;28;20180;-82
2023/08/14 01:11:26;;;;;;;4.95;3.42;;;25.80;87.50;;;;;;5034920;28;20037;-81
2023/08/14 01:14:17;;;;;;;7.00;3.13;;;25.80;87.30;;;;;;5034846;28;20151;-81
2023/08/14 01:16:50;;;;;;;4.63;3.63;;;25.80;86.90;;;;;;5034532;28;20538;-82
2023/08/14 01:19:22;;;;;;;5.20;3.65;;;25.80;86.60;;;;;;5034528;28;20049;-81
2023/08/14 01:22:07;;;;;;;5.18;3.75;;;25.70;86.20;;;;;;5034477;28;20025;-81
2023/08/14 01:24:52;;;;;;;3.75;3.33;;;25.80;85.70;;;;;;5034185;28;20022;-81
2023/08/14 01:27:19;;;;;;;3.88;3.50;;;25.80;85.60;;;;;;5034208;28;20427;-81
2023/08/14 01:29:58;;;;;;;6.10;3.83;;;25.80;85.30;;;;;;5034227;28;20503;-82
2023/08/14 01:32:24;;;;;;;4.53;3.67;;;25.80;85.00;;;;;;5034338;28;20032;-81
2023/08/14 01:34:50;;;;;;;4.75;3.58;;;25.80;84.60;;;;;;5033881;28;20104;-80
2023/08/14 01:37:49;;;;;;;4.70;3.30;;;25.80;84.60;;;;;;5033792;28;20029;-81
2023/08/14 01:40:36;;;;;;;6.22;3.67;;;25.80;84.30;;;;;;5009897;28;20038;-81
2023/08/14 01:43:29;;;;;;;5.78;3.78;;;25.80;84.00;;;;;;5014831;28;20038;-82
2023/08/14 01:45:57;;;;;;;6.30;3.58;;;25.80;83.80;;;;;;5011646;28;20041;-82
2023/08/14 01:48:24;;;;;;;6.50;4.10;;;25.90;84.00;;;;;;5014628;28;20498;-81
2023/08/14 01:50:52;;;;;;;6.07;3.45;;;25.80;83.90;;;;;;5014088;28;20480;-81
2023/08/14 01:53:19;;;;;;;4.90;3.80;;;25.90;83.80;;;;;;5011476;28;20832;-81
2023/08/14 01:55:44;;;;;;;7.43;3.83;;;25.90;83.70;;;;;;5011517;28;20483;-82
2023/08/14 01:58:10;;;;;;;4.65;3.55;;;25.80;83.50;;;;;;5013780;28;20029;-81
2023/08/14 02:00:37;;;;;;;5.55;3.90;;;25.80;83.40;;;;;;5014189;28;20122;-81
2023/08/14 02:03:03;;;;;;;9.15;3.90;;;25.80;83.10;;;;;;5014004;28;20101;-81
2023/08/14 02:05:29;;;;;;;4.88;3.60;;;25.80;83.20;;;;;;5014012;28;20037;-81
2023/08/14 02:07:55;;;;;;;6.75;4.00;;;25.80;83.10;;;;;;5014064;28;20018;-82
2023/08/14 02:10:21;;;;;;;5.35;3.92;;;25.80;83.00;;;;;;5014038;28;20076;-81
2023/08/14 02:12:47;;;;;;;6.03;3.97;;;25.80;82.70;;;;;;5013859;28;20488;-81
2023/08/14 02:15:14;;;;;;;6.32;4.00;;;25.80;82.50;;;;;;5013816;28;20068;-82
2023/08/14 02:17:40;;;;;;;5.78;4.03;;;25.80;82.30;;;;;;5013787;28;20478;-82
2023/08/14 02:20:06;;;;;;;4.53;3.67;;;25.80;81.90;;;;;;5013582;28;20025;-81
2023/08/14 02:22:32;;;;;;;7.25;3.70;;;25.80;81.60;;;;;;5013678;28;20018;-80
2023/08/14 02:24:58;;;;;;;6.03;3.67;;;25.80;81.40;;;;;;5013324;28;20022;-81
2023/08/14 02:27:23;;;;;;;5.03;3.92;;;25.80;81.10;;;;;;4995699;28;20037;-81
2023/08/14 02:29:49;;;;;;;5.75;3.72;;;25.80;81.20;;;;;;5013026;28;20075;-81
2023/08/14 02:32:15;;;;;;;6.05;3.80;;;25.80;81.10;;;;;;5013527;28;20030;-81
2023/08/14 02:34:49;;;;;;;5.85;4.15;;;25.80;80.70;;;;;;5013195;28;20057;-81
2023/08/14 02:37:17;;;;;;;4.90;4.07;;;25.80;80.20;;;;;;4993782;28;20046;-82
2023/08/14 02:39:44;;;;;;;5.18;3.75;;;25.80;80.00;;;;;;4994025;28;20057;-81
2023/08/14 02:42:10;;;;;;;7.10;4.20;;;25.70;80.00;;;;;;4993614;28;20030;-81
2023/08/14 02:44:36;;;;;;;7.72;4.00;;;25.70;79.90;;;;;;4993795;28;20443;-82
2023/08/14 02:47:04;;;;;;;6.88;3.80;;;25.70;79.90;;;;;;4993282;28;20540;-82
2023/08/14 02:49:30;;;;;;;5.70;3.90;;;25.80;80.00;;;;;;4993283;28;20554;-81
2023/08/14 02:51:56;;;;;;;4.40;3.78;;;25.70;79.80;;;;;;4992760;28;20109;-82
2023/08/14 02:54:22;;;;;;;4.25;3.75;;;25.70;79.90;;;;;;4993697;28;20018;-82
2023/08/14 02:56:48;;;;;;;7.13;4.15;;;25.70;80.10;;;;;;4993355;28;20067;-82
2023/08/14 02:59:14;;;;;;;8.65;4.78;;;25.70;80.50;;;;;;4993352;28;20046;-82
2023/08/14 03:01:40;;;;;;;6.20;3.90;;;25.70;80.70;;;;;;4993674;28;20544;-81
2023/08/14 03:04:06;;;;;;;5.25;4.13;;;25.70;80.70;;;;;;4993365;28;20015;-82
2023/08/14 03:06:32;;;;;;;5.85;4.20;;;25.70;80.70;;;;;;4993365;28;20033;-82
2023/08/14 03:08:58;;;;;;;4.40;4.00;;;25.70;80.80;;;;;;5008775;28;20061;-81
2023/08/14 03:11:24;;;;;;;8.05;4.10;;;25.60;81.10;;;;;;4993318;28;20125;-82
2023/08/14 03:13:50;;;;;;;6.90;3.70;;;25.60;81.50;;;;;;4993437;28;20098;-81
2023/08/14 03:16:16;;;;;;;7.05;4.05;;;25.60;81.80;;;;;;4993434;28;20022;-82
2023/08/14 03:18:41;;;;;;;5.93;3.90;;;25.60;82.10;;;;;;4993081;28;20106;-81
2023/08/14 03:21:07;;;;;;;6.60;4.00;;;25.50;82.30;;;;;;4993055;28;20030;-82
2023/08/14 03:23:34;;;;;;;6.57;4.28;;;25.60;82.50;;;;;;4993061;28;20042;-81
2023/08/14 03:26:01;;;;;;;6.28;4.38;;;25.50;82.50;;;;;;4993105;28;20030;-81
2023/08/14 03:28:26;;;;;;;6.28;3.80;;;25.50;82.50;;;;;;4992901;28;20432;-82
2023/08/14 03:30:52;;;;;;;7.93;3.95;;;25.50;82.60;;;;;;4993029;28;20038;-81
2023/08/14 03:33:18;;;;;;;7.05;3.90;;;25.50;82.80;;;;;;4993188;28;20431;-82
2023/08/14 03:35:44;;;;;;;4.60;3.83;;;25.40;83.00;;;;;;5001547;28;20049;-82
2023/08/14 03:38:09;;;;;;;6.03;4.05;;;25.40;83.10;;;;;;5013064;28;20030;-82
2023/08/14 03:40:35;;;;;;;6.63;4.20;;;25.40;83.40;;;;;;5012615;28;20037;-81
2023/08/14 03:43:02;;;;;;;4.97;3.75;;;25.30;83.60;;;;;;5013043;28;20097;-81
2023/08/14 03:45:28;;;;;;;6.10;4.07;;;25.30;83.80;;;;;;5012790;28;20048;-81
2023/08/14 03:47:53;;;;;;;5.82;4.00;;;25.20;84.00;;;;;;4995123;28;20022;-82
2023/08/14 03:50:19;;;;;;;6.05;3.95;;;25.20;84.30;;;;;;5020136;28;20117;-82
2023/08/14 03:52:45;;;;;;;6.47;3.80;;;25.20;84.70;;;;;;5014333;28;20032;-81
2023/08/14 03:55:11;;;;;;;11.00;4.55;;;25.10;84.80;;;;;;5032268;28;20026;-82
2023/08/14 03:57:36;;;;;;;6.80;4.20;;;25.10;85.00;;;;;;5014672;28;20024;-82
2023/08/14 04:00:03;;;;;;;8.25;4.45;;;25.10;85.30;;;;;;5014750;28;20029;-82
2023/08/14 04:02:28;;;;;;;8.10;4.47;;;25.00;85.20;;;;;;5033626;28;20162;-82
2023/08/14 04:04:54;;;;;;;6.28;4.45;;;25.00;85.30;;;;;;5036387;28;20474;-82
2023/08/14 04:07:20;;;;;;;7.13;4.35;;;25.00;85.40;;;;;;5036130;28;20022;-81
2023/08/14 04:09:45;;;;;;;4.88;3.80;;;25.00;85.40;;;;;;5036130;28;20466;-82
2023/08/14 04:12:11;;;;;;;7.22;4.10;;;25.00;85.40;;;;;;5036324;28;20029;-82
2023/08/14 04:14:37;;;;;;;4.50;4.00;;;25.00;85.40;;;;;;5036328;28;20418;-82
2023/08/14 04:17:03;;;;;;;5.28;4.60;;;25.00;85.60;;;;;;5035899;28;20044;-82
2023/08/14 04:19:29;;;;;;;7.20;4.40;;;24.90;85.70;;;;;;5035826;28;20029;-82
2023/08/14 04:21:55;;;;;;;5.15;4.13;;;24.90;85.80;;;;;;5036008;28;20022;-82
2023/08/14 04:24:20;;;;;;;6.80;4.30;;;24.90;86.00;;;;;;5035734;28;20022;-81
2023/08/14 04:26:46;;;;;;;7.70;4.38;;;24.90;86.10;;;;;;5035683;28;20017;-81
2023/08/14 04:29:12;;;;;;;11.82;5.05;;;24.90;86.20;;;;;;5035623;28;20033;-82
2023/08/14 04:31:39;;;;;;;8.10;4.45;;;24.80;86.30;;;;;;5035898;28;20022;-80
2023/08/14 04:34:06;;;;;;;12.38;4.45;;;24.80;86.40;;;;;;5035971;28;20544;-80
2023/08/14 04:36:34;;;;;;;7.97;4.45;;;24.80;86.50;;;;;;5034501;28;20055;-80
2023/08/14 04:39:00;;;;;;;10.52;4.85;;;24.80;86.70;;;;;;5035796;28;20021;-80
2023/08/14 04:41:27;;;;;;;6.82;4.97;;;24.80;86.90;;;;;;5035207;28;20104;-80
2023/08/14 04:43:54;;;;;;;8.45;4.90;;;24.90;87.20;;;;;;5035394;28;20025;-80
2023/08/14 04:46:31;;;;;;;8.65;5.15;;;24.80;87.20;;;;;;5036043;28;20383;-80
2023/08/14 04:48:59;;;;;;;9.48;4.50;;;24.80;87.60;;;;;;5035773;28;20038;-80
2023/08/14 04:51:25;;;;;;;6.10;4.43;;;24.80;87.50;;;;;;5035687;28;20029;-80
2023/08/14 04:53:51;;;;;;;5.03;4.38;;;24.80;87.30;;;;;;5035538;28;20021;-80
2023/08/14 04:56:17;;;;;;;10.98;5.05;;;24.80;87.10;;;;;;5035435;28;20022;-80
2023/08/14 04:58:44;;;;;;;5.32;4.40;;;24.80;86.80;;;;;;5035587;28;20079;-80
2023/08/14 05:01:09;;;;;;;7.57;4.30;;;24.90;86.70;;;;;;5034094;28;20021;-80
2023/08/14 05:03:35;;;;;;;5.68;4.38;;;24.90;86.20;;;;;;5033452;28;20049;-80
2023/08/14 05:06:01;;;;;;;5.05;4.20;;;24.90;86.30;;;;;;5033315;28;20033;-80
2023/08/14 05:08:27;;;;;;;6.53;4.20;;;24.90;86.30;;;;;;5015524;28;20049;-79
2023/08/14 05:10:54;;;;;;;6.97;4.38;;;24.90;86.20;;;;;;5033371;28;20037;-80
2023/08/14 05:13:21;;;;;;;8.90;4.47;;;24.90;86.10;;;;;;5015621;28;20028;-80
2023/08/14 05:15:47;;;;;;;5.05;4.30;;;24.90;86.10;;;;;;5033250;28;20040;-80
2023/08/14 05:18:14;;;;;;;5.15;4.43;;;24.90;86.00;;;;;;5035168;28;20018;-80
2023/08/14 05:20:43;;;;;;;10.88;4.70;;;25.00;85.90;;;;;;5035125;28;20539;-80
2023/08/14 05:23:09;;;;;;;8.02;4.60;;;25.00;85.70;;;;;;5035088;28;20367;-80
2023/08/14 05:25:35;;;;;;;8.68;4.60;;;25.00;85.70;;;;;;5035031;28;20035;-80
2023/08/14 05:28:01;;;;;;;6.32;4.47;;;25.00;85.60;;;;;;5035226;28;20014;-80
2023/08/14 05:30:27;;;;;;;5.72;3.90;;;25.00;85.60;;;;;;5035000;28;20068;-79
2023/08/14 05:32:52;;;;;;;5.18;4.30;;;25.00;85.10;;;;;;5034900;28;20025;-80
2023/08/14 05:35:23;;;;;;;5.35;4.40;;;25.10;85.30;;;;;;5034608;28;20089;-80
2023/08/14 05:37:55;;;;;;;6.38;4.10;;;25.10;85.30;;;;;;5034939;28;20022;-80
2023/08/14 05:40:21;;;;;;;7.95;4.10;;;25.10;84.90;;;;;;5034782;28;20519;-79
2023/08/14 05:43:09;;;;;;;5.28;4.07;;;25.10;85.20;;;;;;5035034;28;20022;-80
2023/08/14 05:45:36;;;;;;;8.13;4.60;;;25.10;86.20;;;;;;5034723;28;20068;-80
2023/08/14 05:48:04;;;;;;;11.57;4.43;;;25.10;87.30;;;;;;5034872;28;20026;-80
2023/08/14 05:50:30;;;;;;;6.85;4.28;;;25.10;88.40;;;;;;5017248;28;20029;-80
2023/08/14 05:52:59;;;;;;;8.57;4.10;;;25.10;87.90;;;;;;5037313;28;20021;-80
2023/08/14 05:55:26;;;;;;;7.63;4.50;;;25.10;88.40;;;;;;5034690;28;20061;-80
2023/08/14 05:57:52;;;;;;;8.13;4.30;;;25.20;88.70;;;;;;5034241;28;20025;-80
2023/08/14 06:00:19;;;;;;;5.65;4.28;;;25.10;88.70;;;;;;5034221;28;20549;-80
2023/08/14 06:02:45;;;;;;;7.78;4.82;;;25.10;88.90;;;;;;5034164;28;20057;-80
2023/08/14 06:05:12;;;;;;;5.70;4.80;;;25.10;89.30;;;;;;5034581;28;20041;-80
2023/08/14 06:07:38;;;;;;;6.18;4.32;;;25.20;89.30;;;;;;5033952;28;20033;-80
2023/08/14 06:10:05;;;;;;;6.07;4.78;;;25.20;89.40;;;;;;5032487;28;20052;-81
2023/08/14 06:12:32;;;;;;;5.18;4.10;;;25.20;89.40;;;;;;5033530;28;20028;-81
2023/08/14 06:14:58;;;;;;;5.85;4.30;;;25.20;88.90;;;;;;5032755;28;20510;-81
2023/08/14 06:17:24;;;;;;;5.90;3.85;;;25.30;88.10;;;;;;5032123;28;20037;-81
2023/08/14 06:19:50;;;;;;;8.38;4.20;;;25.30;87.60;;;;;;5014493;28;20329;-81
2023/08/14 06:22:16;;;;;;;7.97;4.30;;;25.30;87.60;;;;;;5032629;28;20144;-80
2023/08/14 06:24:42;;;;;;;6.65;4.40;;;25.30;87.60;;;;;;5032781;28;20562;-82
2023/08/14 06:27:08;;;;;;;7.85;3.88;;;25.40;87.30;;;;;;5031817;28;20108;-81
2023/08/14 06:29:34;;;;;;;5.93;3.88;;;25.50;86.50;;;;;;5015907;28;20052;-81
2023/08/14 06:32:00;;;;;;;5.47;3.70;;;25.50;85.00;;;;;;5033578;28;20032;-81
2023/08/14 06:34:27;;;;;;;4.00;3.28;;;25.50;83.80;;;;;;5033361;28;20029;-81
2023/08/14 06:36:53;;;;;;;5.80;3.58;;;25.60;82.20;;;;;;5032941;28;20096;-81
2023/08/14 06:39:19;;;;;;;7.80;3.25;;;25.60;81.50;;;;;;5033668;28;20057;-81
2023/08/14 06:41:44;;;;;;;6.30;3.38;;;25.70;80.40;;;;;;5033466;28;20048;-81
2023/08/14 06:44:10;;;;;;;4.70;3.38;;;25.70;78.90;;;;;;5033363;28;20034;-80
2023/08/14 06:46:37;;;;;;;8.82;3.45;;;25.70;78.50;;;;;;5033841;28;20100;-81
2023/08/14 06:49:03;;;;;;;4.32;3.60;;;25.70;78.20;;;;;;5033610;28;20029;-77
2023/08/14 06:51:28;;;;;;;8.20;3.20;;;25.70;78.20;;;;;;5033204;28;20045;-80
2023/08/14 06:53:54;;;;;;;6.50;2.80;;;25.80;78.30;;;;;;5034575;28;20053;-81
2023/08/14 06:56:20;;;;;;;7.30;3.10;;;25.80;77.40;;;;;;5033858;28;20032;-84
2023/08/14 06:58:46;;;;;;;7.20;3.13;;;25.90;77.10;;;;;;5033492;28;20025;-81
2023/08/14 07:01:12;;;;;;;3.75;2.83;;;25.90;76.30;;;;;;5033058;28;20078;-80
2023/08/14 07:03:38;;;;;;;4.53;3.08;;;25.90;76.20;;;;;;5033335;28;20048;-80
2023/08/14 07:06:04;;;;;;;3.58;3.28;;;25.90;75.80;;;;;;5033514;28;20073;-81
2023/08/14 07:08:30;;;;;;;4.75;2.83;;;26.00;74.90;;;;;;5033047;28;20365;-81
2023/08/14 07:10:56;;;;;;;4.38;3.40;;;26.00;74.50;;;;;;5031585;28;20036;-81
2023/08/14 07:13:25;;;;;;;7.32;3.65;;;26.00;74.30;;;;;;5014155;28;20382;-81
2023/08/14 07:15:50;;;;;;;6.47;3.40;;;26.10;74.70;;;;;;5032198;28;20506;-81
2023/08/14 07:18:18;;;;;;;6.30;3.22;;;26.10;75.30;;;;;;5031105;28;20029;-81
2023/08/14 07:20:47;;;;;;;5.80;3.60;;;26.20;75.30;;;;;;5031214;28;20524;-81
2023/08/14 07:23:15;;;;;;;4.43;3.38;;;26.20;75.40;;;;;;5031369;28;20032;-81
2023/08/14 07:25:41;;;;;;;6.85;3.13;;;26.20;75.50;;;;;;5014075;28;20100;-80
2023/08/14 07:28:07;;;;;;;11.85;3.63;;;26.30;75.90;;;;;;5032250;28;20031;-81
2023/08/14 07:30:33;;;;;;;5.97;3.72;;;26.20;76.20;;;;;;5032337;28;20033;-82
2023/08/14 07:32:59;;;;;;;6.05;3.42;;;26.20;76.30;;;;;;5032595;28;20498;-81
2023/08/14 07:35:25;;;;;;;4.15;3.50;;;26.30;76.70;;;;;;5032607;28;20045;-81
2023/08/14 07:37:51;;;;;;;6.50;3.70;;;26.30;77.20;;;;;;5032521;28;20048;-82
2023/08/14 07:40:17;;;;;;;8.93;3.50;;;26.30;77.40;;;;;;5032906;28;20108;-82
2023/08/14 07:42:43;;;;;;;4.28;3.40;;;26.30;77.00;;;;;;5032840;28;20021;-81
2023/08/14 07:45:09;;;;;;;6.13;3.42;;;26.40;76.80;;;;;;5032718;28;20026;-81
2023/08/14 07:47:34;;;;;;;5.97;3.40;;;26.40;76.80;;;;;;5032869;28;20026;-82
2023/08/14 07:50:00;;;;;;;5.55;3.30;;;26.50;77.10;;;;;;5032731;28;20069;-80
2023/08/14 07:52:27;;;;;;;4.95;3.72;;;26.50;77.60;;;;;;5032860;28;20036;-81
2023/08/14 07:54:54;;;;;;;5.55;3.30;;;26.50;78.10;;;;;;5032289;28;20557;-81
2023/08/14 07:57:20;;;;;;;6.35;3.35;;;26.60;77.80;;;;;;5032588;28;20387;-81
2023/08/14 07:59:45;;;;;;;7.07;3.45;;;26.60;77.40;;;;;;5032772;28;20021;-81
2023/08/14 08:02:11;;;;;;;8.45;3.78;;;26.60;77.10;;;;;;5032590;28;20053;-78
2023/08/14 08:04:37;;;;;;;6.40;4.00;;;26.70;77.00;;;;;;5013233;28;20079;-79
2023/08/14 08:07:03;;;;;;;8.32;3.95;;;26.70;76.70;;;;;;5030412;28;20032;-79
2023/08/14 08:09:30;;;;;;;7.43;3.72;;;26.80;76.80;;;;;;5030407;28;20028;-79
2023/08/14 08:11:56;;;;;;;4.75;3.22;;;26.80;76.50;;;;;;5030611;28;20045;-79
2023/08/14 08:14:22;;;;;;;5.32;3.40;;;26.80;76.40;;;;;;5030921;28;20017;-79
2023/08/14 08:16:49;;;;;;;5.57;3.78;;;26.90;76.10;;;;;;5031684;28;20021;-79
2023/08/14 08:19:15;;;;;;;7.85;3.30;;;26.90;75.90;;;;;;5031866;28;20029;-80
2023/08/14 08:21:41;;;;;;;6.60;3.38;;;26.90;75.30;;;;;;5032268;28;20022;-80
2023/08/14 08:24:08;;;;;;;4.22;3.17;;;27.00;75.00;;;;;;5031290;28;20053;-79
2023/08/14 08:26:34;;;;;;;5.47;2.83;;;27.00;75.10;;;;;;5012578;28;20376;-79
2023/08/14 08:28:59;;;;;;;9.57;3.33;;;27.00;74.90;;;;;;5031068;28;20030;-79
2023/08/14 08:31:25;;;;;;;5.25;3.50;;;27.00;74.10;;;;;;5031399;28;20029;-79
2023/08/14 08:33:51;;;;;;;5.63;3.10;;;27.10;74.10;;;;;;5032027;28;20052;-79
2023/08/14 08:36:20;;;;;;;7.40;3.60;;;27.10;74.30;;;;;;5032068;28;20042;-79
2023/08/14 08:38:47;;;;;;;4.18;3.00;;;27.20;73.90;;;;;;5032051;28;20037;-80
2023/08/14 08:41:17;;;;;;;6.03;3.35;;;27.20;73.90;;;;;;5032227;28;20539;-79
2023/08/14 08:43:43;;;;;;;4.65;3.08;;;27.30;73.90;;;;;;5032387;28;20455;-79
2023/08/14 08:46:10;;;;;;;4.68;3.08;;;27.30;73.40;;;;;;5032365;28;20032;-79
2023/08/14 08:48:44;;;;;;;4.05;3.47;;;27.30;72.70;;;;;;5032002;28;20104;-79
2023/08/14 08:51:14;;;;;;;4.30;2.90;;;27.40;72.50;;;;;;5034751;28;20475;-79
2023/08/14 08:53:41;;;;;;;6.82;3.83;;;27.40;71.60;;;;;;5035649;28;20108;-78
2023/08/14 08:56:06;;;;;;;6.70;2.92;;;27.40;72.50;;;;;;5035523;28;20040;-78
2023/08/14 08:58:32;;;;;;;5.88;3.88;;;27.40;72.60;;;;;;5035670;28;20022;-78
2023/08/14 09:00:59;;;;;;;3.88;3.00;;;27.50;71.80;;;;;;5017541;28;20030;-78
2023/08/14 09:03:25;;;;;;;6.40;3.70;;;27.60;72.00;;;;;;5035055;28;20032;-78
2023/08/14 09:05:51;;;;;;;5.60;3.45;;;27.60;72.10;;;;;;5017496;28;20399;-79
2023/08/14 09:08:17;;;;;;;7.45;3.35;;;27.60;72.70;;;;;;5035247;28;20021;-79
2023/08/14 09:10:43;;;;;;;6.93;4.18;;;27.60;72.10;;;;;;5034932;28;20469;-78
2023/08/14 09:13:10;;;;;;;7.40;3.55;;;27.70;72.10;;;;;;5034733;28;20100;-78
2023/08/14 09:15:41;;;;;;;4.55;3.55;;;27.70;72.40;;;;;;5035218;28;20064;-78
2023/08/14 09:18:06;;;;;;;4.25;3.30;;;27.70;72.60;;;;;;5035227;28;20028;-78
2023/08/14 09:20:32;;;;;;;4.25;3.42;;;27.80;72.00;;;;;;5035331;28;20021;-78
2023/08/14 09:22:59;;;;;;;8.02;4.00;;;27.80;71.70;;;;;;5034905;28;20025;-79
2023/08/14 09:25:26;;;;;;;7.43;3.45;;;27.80;72.00;;;;;;5034657;28;20029;-78
2023/08/14 09:27:54;;;;;;;4.55;3.38;;;27.90;72.60;;;;;;5016913;28;20025;-77
2023/08/14 09:30:23;;;;;;;5.50;3.15;;;28.00;73.10;;;;;;5034761;28;20029;-76
2023/08/14 09:32:49;;;;;;;3.50;3.20;;;28.00;72.50;;;;;;5034622;28;20028;-75
2023/08/14 09:35:15;;;;;;;5.38;3.33;;;28.00;72.50;;;;;;5034714;28;20526;-76
2023/08/14 09:37:41;;;;;;;7.55;3.60;;;28.10;72.50;;;;;;5034570;28;20398;-75
2023/08/14 09:40:13;;;;;;;5.30;3.33;;;28.10;72.20;;;;;;5034448;28;20105;-75
2023/08/14 09:42:39;;;;;;;5.65;3.03;;;28.20;71.90;;;;;;5034517;28;20076;-75
2023/08/14 09:45:06;;;;;;;4.82;3.20;;;28.10;71.50;;;;;;5034396;28;20021;-78
2023/08/14 09:47:32;;;;;;;6.93;3.28;;;28.20;70.90;;;;;;5034627;28;20053;-78
2023/08/14 09:49:58;;;;;;;5.57;3.40;;;28.20;70.00;;;;;;5016631;28;20037;-79
2023/08/14 09:52:24;;;;;;;7.22;3.28;;;28.30;69.30;;;;;;5034421;28;20088;-78
2023/08/14 09:54:50;;;;;;;9.10;3.33;;;28.30;69.60;;;;;;5034392;28;20029;-79
2023/08/14 09:57:17;;;;;;;3.78;2.85;;;28.30;69.30;;;;;;5033860;28;20029;-79
2023/08/14 09:59:43;;;;;;;5.43;3.00;;;28.40;69.80;;;;;;5034566;28;20025;-78
2023/08/14 10:02:14;;;;;;;9.90;3.22;;;28.40;69.00;;;;;;5034150;28;20064;-78
2023/08/14 10:04:43;;;;;;;8.43;3.10;;;28.50;68.40;;;;;;5034827;28;20060;-79
2023/08/14 10:07:09;;;;;;;5.85;3.40;;;28.50;68.70;;;;;;5034515;28;20084;-78
2023/08/14 10:09:39;;;;;;;5.00;2.67;;;28.50;68.10;;;;;;5034125;28;20468;-77
2023/08/14 10:12:11;;;;;;;5.88;2.78;;;28.60;66.80;;;;;;5033874;28;20021;-78
2023/08/14 10:14:39;;;;;;;3.97;2.80;;;28.60;66.60;;;;;;5033742;28;20037;-79
2023/08/14 10:17:12;;;;;;;4.97;3.15;;;28.60;66.20;;;;;;5034113;28;20475;-80
2023/08/14 10:19:40;;;;;;;4.55;3.00;;;28.70;66.30;;;;;;5034138;28;20026;-79
2023/08/14 10:22:08;;;;;;;4.13;3.20;;;28.70;66.30;;;;;;5034021;28;20026;-80
2023/08/14 10:24:38;;;;;;;7.03;2.92;;;28.70;65.80;;;;;;5034267;28;20095;-79
2023/08/14 10:27:07;;;;;;;3.15;2.63;;;28.70;65.40;;;;;;5016205;28;20105;-79
2023/08/14 10:29:35;;;;;;;5.20;2.55;;;28.80;64.60;;;;;;5033849;28;20032;-78
2023/08/14 10:32:02;;;;;;;5.18;3.40;;;28.80;64.50;;;;;;5034058;28;20029;-78
2023/08/14 10:34:30;;;;;;;6.03;2.80;;;28.80;65.70;;;;;;5033867;28;20060;-77
2023/08/14 10:36:55;;;;;;;4.97;3.15;;;28.90;66.10;;;;;;5033694;28;20077;-82
2023/08/14 10:39:35;;;;;;;4.18;3.00;;;28.90;66.50;;;;;;5033525;28;20081;-83
2023/08/14 10:42:04;;;;;;;4.20;2.80;;;29.00;66.60;;;;;;5033038;28;20499;-82
2023/08/14 10:44:42;;;;;;;6.90;3.45;;;29.00;66.70;;;;;;5014641;28;20028;-83
2023/08/14 10:47:12;;;;;;;5.60;2.95;;;29.10;68.60;;;;;;5033214;28;20471;-81
2023/08/14 10:49:49;;;;;;;4.13;3.08;;;29.10;67.20;;;;;;5032919;28;20028;-81
2023/08/14 10:52:16;;;;;;;6.53;2.72;;;29.20;66.20;;;;;;5033078;28;20112;-83
2023/08/14 10:54:48;;;;;;;4.35;2.85;;;29.20;66.80;;;;;;5033245;28;20018;-83
2023/08/14 10:57:14;;;;;;;8.07;3.03;;;29.20;66.20;;;;;;5014250;28;20030;-83
2023/08/14 10:59:41;;;;;;;4.93;2.92;;;29.30;66.70;;;;;;5031249;28;20083;-83
2023/08/14 11:02:10;;;;;;;4.03;2.90;;;29.30;64.70;;;;;;5031408;28;20053;-82
2023/08/14 11:04:57;;;;;;;4.53;2.80;;;29.30;65.30;;;;;;5031953;28;20029;-83
2023/08/14 11:07:30;;;;;;;8.23;3.00;;;29.30;65.90;;;;;;5032062;28;20033;-81
2023/08/14 11:09:57;;;;;;;7.07;2.97;;;29.40;66.20;;;;;;5031906;28;20037;-82
2023/08/14 11:12:24;;;;;;;5.18;3.28;;;29.40;67.00;;;;;;5032488;28;20402;-83
2023/08/14 11:14:50;;;;;;;3.00;2.70;;;29.50;67.30;;;;;;5015160;28;20026;-83
2023/08/14 11:17:16;;;;;;;5.43;3.17;;;29.50;67.00;;;;;;5033042;28;20022;-83
2023/08/14 11:19:42;;;;;;;6.60;3.00;;;29.60;64.50;;;;;;5033063;28;20048;-83
2023/08/14 11:22:08;;;;;;;5.30;3.08;;;29.60;64.90;;;;;;5033105;28;20499;-83
2023/08/14 11:24:34;;;;;;;9.05;3.78;;;29.70;65.60;;;;;;5015313;28;20379;-83
2023/08/14 11:27:00;;;;;;;3.05;2.75;;;29.70;66.80;;;;;;5032915;28;20060;-82
2023/08/14 11:29:26;;;;;;;6.25;3.08;;;29.70;66.20;;;;;;5033031;28;20053;-83
2023/08/14 11:31:52;;;;;;;5.28;2.78;;;29.80;65.40;;;;;;5033016;28;20067;-82
2023/08/14 11:34:21;;;;;;;5.75;3.05;;;29.80;65.40;;;;;;5032741;28;20024;-83
2023/08/14 11:36:58;;;;;;;5.25;3.08;;;29.80;63.80;;;;;;5032857;28;20080;-82
2023/08/14 11:39:24;;;;;;;6.20;2.80;;;29.90;64.50;;;;;;5033029;28;20507;-81
2023/08/14 11:41:50;;;;;;;3.95;2.95;;;29.90;64.10;;;;;;5032879;28;20539;-82
2023/08/14 11:44:16;;;;;;;3.97;2.78;;;29.90;64.40;;;;;;5032927;28;20034;-83
2023/08/14 11:46:43;;;;;;;3.28;2.70;;;29.90;64.80;;;;;;5032614;28;20032;-83
2023/08/14 11:49:11;;;;;;;4.55;2.72;;;30.00;63.90;;;;;;5032794;28;20539;-83
2023/08/14 11:51:39;;;;;;;6.03;2.78;;;30.00;64.00;;;;;;5032899;28;20476;-83
2023/08/14 11:54:09;;;;;;;4.40;2.78;;;30.00;64.00;;;;;;5032677;28;20021;-82
2023/08/14 11:56:37;;;;;;;5.75;2.55;;;30.00;62.50;;;;;;5032951;28;20480;-82
2023/08/14 11:59:05;;;;;;;2.55;2.20;;;30.10;62.50;;;;;;5032746;28;20022;-83
2023/08/14 12:01:37;;;;;;;2.85;2.30;;;30.10;62.30;;;;;;5015189;28;20480;-84
2023/08/14 12:04:20;;;;;;;5.75;2.30;;;30.10;61.00;;;;;;5032680;28;20048;-85
2023/08/14 12:06:54;;;;;;;2.75;2.33;;;30.20;61.00;;;;;;5033369;28;20117;-84
2023/08/14 12:09:27;;;;;;;6.35;2.50;;;30.20;60.40;;;;;;5015370;28;20112;-84
2023/08/14 12:11:53;;;;;;;5.15;2.50;;;30.20;59.60;;;;;;5014856;28;20507;-83
2023/08/14 12:14:19;;;;;;;7.63;3.40;;;30.20;59.90;;;;;;5014248;28;20029;-84
2023/08/14 12:16:56;;;;;;;3.00;2.28;;;30.30;59.20;;;;;;5031848;28;20475;-84
2023/08/14 12:19:25;;;;;;;8.82;2.30;;;30.30;58.50;;;;;;5031908;28;20024;-84
2023/08/14 12:21:59;;;;;;;5.63;2.45;;;30.30;58.60;;;;;;5032126;28;20553;-84
2023/08/14 12:24:39;;;;;;;4.25;2.28;;;30.30;58.40;;;;;;5015128;28;20041;-84
2023/08/14 12:27:21;;;;;;;3.38;2.47;;;30.40;60.30;;;;;;5034740;28;20056;-83
2023/08/14 12:29:59;;;;;;;4.13;2.35;;;30.40;59.20;;;;;;5035665;28;20439;-84
2023/08/14 12:32:29;;;;;;;5.30;2.47;;;30.40;59.30;;;;;;5017973;28;20029;-84
2023/08/14 12:34:54;;;;;;;8.05;2.30;;;30.50;59.50;;;;;;5035709;28;20036;-83
2023/08/14 12:37:20;;;;;;;5.13;2.50;;;30.50;58.50;;;;;;5036222;28;20021;-83
2023/08/14 12:39:55;;;;;;;6.75;2.30;;;30.50;58.70;;;;;;5036091;28;20029;-83
2023/08/14 12:42:21;;;;;;;3.15;2.25;;;30.60;58.80;;;;;;5017833;28;20030;-82
2023/08/14 12:44:50;;;;;;;7.28;2.25;;;30.60;58.00;;;;;;5034759;28;20460;-85
2023/08/14 12:47:18;;;;;;;2.85;2.20;;;30.70;57.60;;;;;;5036120;28;20459;-84